sensor_id;sensor_type;location;lat;lon;timestamp;temperature;humidity
32476;DHT22;18929;48.008;10.882;2023-05-17T00:00:17;11.50;99.90
32476;DHT22;18929;48.008;10.882;2023-05-17T00:02:45;11.30;99.90
32476;DHT22;18929;48.008;10.882;2023-05-17T00:05:12;11.00;99.90
32476;DHT22;18929;48.008;10.882;2023-05-17T00:07:38;10.90;99.90
32476;DHT22;18929;48.008;10.882;2023-05-17T00:10:06;11.00;99.90
32476;DHT22;18929;48.008;10.882;2023-05-17T00:12:33;11.20;99.90
32476;DHT22;18929;48.008;10.882;2023-05-17T00:14:59;11.10;99.90
32476;DHT22;18929;48.008;10.882;2023-05-17T00:17:26;11.00;99.90
32476;DHT22;18929;48.008;10.882;2023-05-17T00:19:54;11.20;99.90
32476;DHT22;18929;48.008;10.882;2023-05-17T00:22:21;11.30;99.90
32476;DHT22;18929;48.008;10.882;2023-05-17T00:24:48;11.60;99.90
32476;DHT22;18929;48.008;10.882;2023-05-17T00:27:15;11.40;99.90
32476;DHT22;18929;48.008;10.882;2023-05-17T00:29:41;11.50;99.90
32476;DHT22;18929;48.008;10.882;2023-05-17T00:32:08;11.10;99.90
32476;DHT22;18929;48.008;10.882;2023-05-17T00:34:35;11.40;99.90
32476;DHT22;18929;48.008;10.882;2023-05-17T00:37:03;11.50;99.90
32476;DHT22;18929;48.008;10.882;2023-05-17T00:39:30;11.60;99.90
32476;DHT22;18929;48.008;10.882;2023-05-17T00:41:57;11.30;99.90
32476;DHT22;18929;48.008;10.882;2023-05-17T00:44:23;11.10;99.90
32476;DHT22;18929;48.008;10.882;2023-05-17T00:46:50;11.20;99.90
32476;DHT22;18929;48.008;10.882;2023-05-17T00:49:17;11.00;99.90
32476;DHT22;18929;48.008;10.882;2023-05-17T00:51:44;11.20;99.90
32476;DHT22;18929;48.008;10.882;2023-05-17T00:54:12;11.30;99.90
32476;DHT22;18929;48.008;10.882;2023-05-17T00:56:40;11.40;99.90
32476;DHT22;18929;48.008;10.882;2023-05-17T00:59:06;11.60;99.90
32476;DHT22;18929;48.008;10.882;2023-05-17T01:01:34;11.40;99.90
32476;DHT22;18929;48.008;10.882;2023-05-17T01:04:01;11.30;99.90
32476;DHT22;18929;48.008;10.882;2023-05-17T01:06:28;10.70;99.90
32476;DHT22;18929;48.008;10.882;2023-05-17T01:08:55;11.10;99.90
32476;DHT22;18929;48.008;10.882;2023-05-17T01:11:27;10.90;99.90
32476;DHT22;18929;48.008;10.882;2023-05-17T01:13:57;10.90;99.90
32476;DHT22;18929;48.008;10.882;2023-05-17T01:16:29;10.90;99.90
32476;DHT22;18929;48.008;10.882;2023-05-17T01:18:57;10.90;99.90
32476;DHT22;18929;48.008;10.882;2023-05-17T01:21:34;10.50;99.90
32476;DHT22;18929;48.008;10.882;2023-05-17T01:24:04;10.70;99.90
32476;DHT22;18929;48.008;10.882;2023-05-17T01:26:38;10.70;99.90
32476;DHT22;18929;48.008;10.882;2023-05-17T01:29:08;10.70;99.90
32476;DHT22;18929;48.008;10.882;2023-05-17T01:31:35;10.00;99.90
32476;DHT22;18929;48.008;10.882;2023-05-17T01:34:05;10.20;99.90
32476;DHT22;18929;48.008;10.882;2023-05-17T01:36:32;10.20;99.90
32476;DHT22;18929;48.008;10.882;2023-05-17T01:38:58;9.30;99.90
32476;DHT22;18929;48.008;10.882;2023-05-17T01:41:26;10.00;99.90
32476;DHT22;18929;48.008;10.882;2023-05-17T01:43:58;10.30;99.90
32476;DHT22;18929;48.008;10.882;2023-05-17T01:46:26;10.40;99.90
32476;DHT22;18929;48.008;10.882;2023-05-17T01:48:55;10.50;99.90
32476;DHT22;18929;48.008;10.882;2023-05-17T01:51:27;10.50;99.90
32476;DHT22;18929;48.008;10.882;2023-05-17T01:53:54;10.70;99.90
32476;DHT22;18929;48.008;10.882;2023-05-17T01:56:26;10.50;99.90
32476;DHT22;18929;48.008;10.882;2023-05-17T01:58:53;10.60;99.90
32476;DHT22;18929;48.008;10.882;2023-05-17T02:01:23;10.70;99.90
32476;DHT22;18929;48.008;10.882;2023-05-17T02:03:53;10.90;99.90
32476;DHT22;18929;48.008;10.882;2023-05-17T02:06:19;10.80;99.90
32476;DHT22;18929;48.008;10.882;2023-05-17T02:08:46;10.40;99.90
32476;DHT22;18929;48.008;10.882;2023-05-17T02:11:13;10.70;99.90
32476;DHT22;18929;48.008;10.882;2023-05-17T02:13:40;10.70;99.90
32476;DHT22;18929;48.008;10.882;2023-05-17T02:16:07;10.60;99.90
32476;DHT22;18929;48.008;10.882;2023-05-17T02:18:35;9.50;99.90
32476;DHT22;18929;48.008;10.882;2023-05-17T02:21:02;10.00;99.90
32476;DHT22;18929;48.008;10.882;2023-05-17T02:23:29;10.30;99.90
32476;DHT22;18929;48.008;10.882;2023-05-17T02:25:56;10.60;99.90
32476;DHT22;18929;48.008;10.882;2023-05-17T02:28:22;11.00;99.90
32476;DHT22;18929;48.008;10.882;2023-05-17T02:30:49;11.10;99.90
32476;DHT22;18929;48.008;10.882;2023-05-17T02:33:17;10.90;99.90
32476;DHT22;18929;48.008;10.882;2023-05-17T02:35:45;11.00;99.90
32476;DHT22;18929;48.008;10.882;2023-05-17T02:38:14;10.70;99.90
32476;DHT22;18929;48.008;10.882;2023-05-17T02:40:41;10.90;99.90
32476;DHT22;18929;48.008;10.882;2023-05-17T02:43:07;10.60;99.90
32476;DHT22;18929;48.008;10.882;2023-05-17T02:45:34;10.90;99.90
32476;DHT22;18929;48.008;10.882;2023-05-17T02:48:01;10.90;99.90
32476;DHT22;18929;48.008;10.882;2023-05-17T02:50:28;10.90;99.90
32476;DHT22;18929;48.008;10.882;2023-05-17T02:52:56;10.80;99.90
32476;DHT22;18929;48.008;10.882;2023-05-17T02:55:23;10.60;99.90
32476;DHT22;18929;48.008;10.882;2023-05-17T02:57:49;10.70;99.90
32476;DHT22;18929;48.008;10.882;2023-05-17T03:00:16;10.50;99.90
32476;DHT22;18929;48.008;10.882;2023-05-17T03:02:43;10.60;99.90
32476;DHT22;18929;48.008;10.882;2023-05-17T03:05:10;10.70;99.90
32476;DHT22;18929;48.008;10.882;2023-05-17T03:07:37;10.70;99.90
32476;DHT22;18929;48.008;10.882;2023-05-17T03:10:05;10.50;99.90
32476;DHT22;18929;48.008;10.882;2023-05-17T03:12:32;10.80;99.90
32476;DHT22;18929;48.008;10.882;2023-05-17T03:14:59;10.90;99.90
32476;DHT22;18929;48.008;10.882;2023-05-17T03:17:26;10.80;99.90
32476;DHT22;18929;48.008;10.882;2023-05-17T03:19:53;10.90;99.90
32476;DHT22;18929;48.008;10.882;2023-05-17T03:22:20;11.00;99.90
32476;DHT22;18929;48.008;10.882;2023-05-17T03:24:46;11.00;99.90
32476;DHT22;18929;48.008;10.882;2023-05-17T03:27:14;10.90;99.90
32476;DHT22;18929;48.008;10.882;2023-05-17T03:29:41;11.10;99.90
32476;DHT22;18929;48.008;10.882;2023-05-17T03:32:08;11.00;99.90
32476;DHT22;18929;48.008;10.882;2023-05-17T03:34:35;10.80;99.90
32476;DHT22;18929;48.008;10.882;2023-05-17T03:37:01;10.80;99.90
32476;DHT22;18929;48.008;10.882;2023-05-17T03:39:28;10.70;99.90
32476;DHT22;18929;48.008;10.882;2023-05-17T03:41:55;10.80;99.90
32476;DHT22;18929;48.008;10.882;2023-05-17T03:44:24;10.40;99.90
32476;DHT22;18929;48.008;10.882;2023-05-17T03:46:50;9.70;99.90
32476;DHT22;18929;48.008;10.882;2023-05-17T03:49:17;10.10;99.90
32476;DHT22;18929;48.008;10.882;2023-05-17T03:51:44;10.40;99.90
32476;DHT22;18929;48.008;10.882;2023-05-17T03:54:11;10.40;99.90
32476;DHT22;18929;48.008;10.882;2023-05-17T03:56:37;10.50;99.90
32476;DHT22;18929;48.008;10.882;2023-05-17T03:59:04;10.60;99.90
32476;DHT22;18929;48.008;10.882;2023-05-17T04:01:32;10.70;99.90
32476;DHT22;18929;48.008;10.882;2023-05-17T04:03:59;10.40;99.90
32476;DHT22;18929;48.008;10.882;2023-05-17T04:06:28;10.40;99.90
32476;DHT22;18929;48.008;10.882;2023-05-17T04:08:55;10.40;99.90
32476;DHT22;18929;48.008;10.882;2023-05-17T04:11:23;10.50;99.90
32476;DHT22;18929;48.008;10.882;2023-05-17T04:13:51;10.70;99.90
32476;DHT22;18929;48.008;10.882;2023-05-17T04:16:18;10.60;99.90
32476;DHT22;18929;48.008;10.882;2023-05-17T04:18:47;10.50;99.90
32476;DHT22;18929;48.008;10.882;2023-05-17T04:21:16;10.50;99.90
32476;DHT22;18929;48.008;10.882;2023-05-17T04:23:43;10.50;99.90
32476;DHT22;18929;48.008;10.882;2023-05-17T04:26:10;10.40;99.90
32476;DHT22;18929;48.008;10.882;2023-05-17T04:28:37;10.50;99.90
32476;DHT22;18929;48.008;10.882;2023-05-17T04:31:05;10.60;99.90
32476;DHT22;18929;48.008;10.882;2023-05-17T04:33:32;10.50;99.90
32476;DHT22;18929;48.008;10.882;2023-05-17T04:36:05;10.60;99.90
32476;DHT22;18929;48.008;10.882;2023-05-17T04:38:31;10.20;99.90
32476;DHT22;18929;48.008;10.882;2023-05-17T04:41:01;10.40;99.90
32476;DHT22;18929;48.008;10.882;2023-05-17T04:43:29;10.10;99.90
32476;DHT22;18929;48.008;10.882;2023-05-17T04:45:56;10.40;99.90
32476;DHT22;18929;48.008;10.882;2023-05-17T04:48:23;10.50;99.90
32476;DHT22;18929;48.008;10.882;2023-05-17T04:50:51;10.70;99.90
32476;DHT22;18929;48.008;10.882;2023-05-17T04:53:19;10.50;99.90
32476;DHT22;18929;48.008;10.882;2023-05-17T04:55:46;10.40;99.90
32476;DHT22;18929;48.008;10.882;2023-05-17T04:58:13;10.60;99.90
32476;DHT22;18929;48.008;10.882;2023-05-17T05:00:40;10.70;99.90
32476;DHT22;18929;48.008;10.882;2023-05-17T05:03:07;10.30;99.90
32476;DHT22;18929;48.008;10.882;2023-05-17T05:05:33;10.70;99.90
32476;DHT22;18929;48.008;10.882;2023-05-17T05:08:00;10.50;99.90
32476;DHT22;18929;48.008;10.882;2023-05-17T05:10:28;10.40;99.90
32476;DHT22;18929;48.008;10.882;2023-05-17T05:12:55;10.50;99.90
32476;DHT22;18929;48.008;10.882;2023-05-17T05:15:22;10.40;99.90
32476;DHT22;18929;48.008;10.882;2023-05-17T05:17:49;10.30;99.90
32476;DHT22;18929;48.008;10.882;2023-05-17T05:20:16;10.30;99.90
32476;DHT22;18929;48.008;10.882;2023-05-17T05:22:42;10.20;99.90
32476;DHT22;18929;48.008;10.882;2023-05-17T05:25:09;10.30;99.90
32476;DHT22;18929;48.008;10.882;2023-05-17T05:27:38;9.90;99.90
32476;DHT22;18929;48.008;10.882;2023-05-17T05:30:06;9.80;99.90
32476;DHT22;18929;48.008;10.882;2023-05-17T05:32:33;10.00;99.90
32476;DHT22;18929;48.008;10.882;2023-05-17T05:35:02;10.00;99.90
32476;DHT22;18929;48.008;10.882;2023-05-17T05:37:30;10.10;99.90
32476;DHT22;18929;48.008;10.882;2023-05-17T05:39:56;9.90;99.90
32476;DHT22;18929;48.008;10.882;2023-05-17T05:42:23;9.40;99.90
32476;DHT22;18929;48.008;10.882;2023-05-17T05:44:53;9.30;99.90
32476;DHT22;18929;48.008;10.882;2023-05-17T05:47:20;9.60;99.90
32476;DHT22;18929;48.008;10.882;2023-05-17T05:52:35;9.40;99.90
32476;DHT22;18929;48.008;10.882;2023-05-17T05:55:02;9.20;99.90
32476;DHT22;18929;48.008;10.882;2023-05-17T05:57:29;9.60;99.90
32476;DHT22;18929;48.008;10.882;2023-05-17T05:59:57;9.20;99.90
32476;DHT22;18929;48.008;10.882;2023-05-17T06:02:24;9.10;99.90
32476;DHT22;18929;48.008;10.882;2023-05-17T06:04:51;9.00;99.90
32476;DHT22;18929;48.008;10.882;2023-05-17T06:07:18;9.60;99.90
32476;DHT22;18929;48.008;10.882;2023-05-17T06:09:44;9.60;99.90
32476;DHT22;18929;48.008;10.882;2023-05-17T06:12:11;9.60;99.90
32476;DHT22;18929;48.008;10.882;2023-05-17T06:14:38;9.40;99.90
32476;DHT22;18929;48.008;10.882;2023-05-17T06:17:06;9.30;99.90
32476;DHT22;18929;48.008;10.882;2023-05-17T06:19:33;8.60;99.90
32476;DHT22;18929;48.008;10.882;2023-05-17T06:22:00;8.10;99.90
32476;DHT22;18929;48.008;10.882;2023-05-17T06:24:27;8.80;99.90
32476;DHT22;18929;48.008;10.882;2023-05-17T06:26:53;8.10;99.90
32476;DHT22;18929;48.008;10.882;2023-05-17T06:29:20;8.50;99.90
32476;DHT22;18929;48.008;10.882;2023-05-17T06:31:48;8.70;99.90
32476;DHT22;18929;48.008;10.882;2023-05-17T06:34:16;9.30;99.90
32476;DHT22;18929;48.008;10.882;2023-05-17T06:36:43;9.50;99.90
32476;DHT22;18929;48.008;10.882;2023-05-17T06:39:10;9.70;99.90
32476;DHT22;18929;48.008;10.882;2023-05-17T06:41:36;8.00;99.90
32476;DHT22;18929;48.008;10.882;2023-05-17T06:44:03;7.80;99.90
32476;DHT22;18929;48.008;10.882;2023-05-17T06:46:30;8.30;99.90
32476;DHT22;18929;48.008;10.882;2023-05-17T06:48:57;9.00;99.90
32476;DHT22;18929;48.008;10.882;2023-05-17T06:51:25;8.70;99.90
32476;DHT22;18929;48.008;10.882;2023-05-17T06:53:52;8.60;99.90
32476;DHT22;18929;48.008;10.882;2023-05-17T06:56:19;9.00;99.90
32476;DHT22;18929;48.008;10.882;2023-05-17T06:58:46;9.20;99.90
32476;DHT22;18929;48.008;10.882;2023-05-17T07:01:12;9.50;99.90
32476;DHT22;18929;48.008;10.882;2023-05-17T07:03:40;9.20;99.90
32476;DHT22;18929;48.008;10.882;2023-05-17T07:06:07;9.80;99.90
32476;DHT22;18929;48.008;10.882;2023-05-17T07:08:35;9.50;99.90
32476;DHT22;18929;48.008;10.882;2023-05-17T07:11:01;9.40;99.90
32476;DHT22;18929;48.008;10.882;2023-05-17T07:13:28;8.90;99.90
32476;DHT22;18929;48.008;10.882;2023-05-17T07:15:55;8.70;99.90
32476;DHT22;18929;48.008;10.882;2023-05-17T07:18:22;9.30;99.90
32476;DHT22;18929;48.008;10.882;2023-05-17T07:20:49;8.50;99.90
32476;DHT22;18929;48.008;10.882;2023-05-17T07:23:16;8.80;99.90
32476;DHT22;18929;48.008;10.882;2023-05-17T07:25:44;9.10;99.90
32476;DHT22;18929;48.008;10.882;2023-05-17T07:28:10;9.70;99.90
32476;DHT22;18929;48.008;10.882;2023-05-17T07:30:37;9.60;99.90
32476;DHT22;18929;48.008;10.882;2023-05-17T07:33:04;9.00;99.90
32476;DHT22;18929;48.008;10.882;2023-05-17T07:35:31;9.30;99.90
32476;DHT22;18929;48.008;10.882;2023-05-17T07:37:58;9.90;99.90
32476;DHT22;18929;48.008;10.882;2023-05-17T07:40:24;9.50;99.90
32476;DHT22;18929;48.008;10.882;2023-05-17T07:42:52;9.80;99.90
32476;DHT22;18929;48.008;10.882;2023-05-17T07:45:19;9.60;99.90
32476;DHT22;18929;48.008;10.882;2023-05-17T07:47:46;9.20;99.90
32476;DHT22;18929;48.008;10.882;2023-05-17T07:50:13;9.40;99.90
32476;DHT22;18929;48.008;10.882;2023-05-17T07:52:40;10.00;99.90
32476;DHT22;18929;48.008;10.882;2023-05-17T07:55:07;8.80;99.90
32476;DHT22;18929;48.008;10.882;2023-05-17T07:57:34;9.70;99.90
32476;DHT22;18929;48.008;10.882;2023-05-17T08:00:03;9.10;99.90
32476;DHT22;18929;48.008;10.882;2023-05-17T08:02:30;9.10;99.90
32476;DHT22;18929;48.008;10.882;2023-05-17T08:04:57;9.30;99.90
32476;DHT22;18929;48.008;10.882;2023-05-17T08:07:24;9.00;99.90
32476;DHT22;18929;48.008;10.882;2023-05-17T08:09:51;9.40;99.90
32476;DHT22;18929;48.008;10.882;2023-05-17T08:12:17;9.60;99.90
32476;DHT22;18929;48.008;10.882;2023-05-17T08:14:44;9.00;99.90
32476;DHT22;18929;48.008;10.882;2023-05-17T08:17:12;9.40;99.90
32476;DHT22;18929;48.008;10.882;2023-05-17T08:19:39;9.40;99.90
32476;DHT22;18929;48.008;10.882;2023-05-17T08:22:06;10.00;99.90
32476;DHT22;18929;48.008;10.882;2023-05-17T08:24:33;9.60;99.90
32476;DHT22;18929;48.008;10.882;2023-05-17T08:27:00;10.10;99.90
32476;DHT22;18929;48.008;10.882;2023-05-17T08:29:27;10.20;99.90
32476;DHT22;18929;48.008;10.882;2023-05-17T08:31:54;9.30;99.90
32476;DHT22;18929;48.008;10.882;2023-05-17T08:34:29;9.50;99.90
32476;DHT22;18929;48.008;10.882;2023-05-17T08:36:56;9.90;99.90
32476;DHT22;18929;48.008;10.882;2023-05-17T08:39:23;10.40;99.90
32476;DHT22;18929;48.008;10.882;2023-05-17T08:41:50;10.60;99.90
32476;DHT22;18929;48.008;10.882;2023-05-17T08:44:17;10.40;99.90
32476;DHT22;18929;48.008;10.882;2023-05-17T08:46:44;10.00;99.90
32476;DHT22;18929;48.008;10.882;2023-05-17T08:49:17;9.80;99.90
32476;DHT22;18929;48.008;10.882;2023-05-17T08:51:48;10.10;99.90
32476;DHT22;18929;48.008;10.882;2023-05-17T08:54:15;10.20;99.90
32476;DHT22;18929;48.008;10.882;2023-05-17T08:56:42;10.10;99.90
32476;DHT22;18929;48.008;10.882;2023-05-17T08:59:09;10.80;99.90
32476;DHT22;18929;48.008;10.882;2023-05-17T09:01:37;10.70;99.90
32476;DHT22;18929;48.008;10.882;2023-05-17T09:04:04;10.80;99.90
32476;DHT22;18929;48.008;10.882;2023-05-17T09:06:33;10.80;99.90
32476;DHT22;18929;48.008;10.882;2023-05-17T09:09:01;10.80;99.90
32476;DHT22;18929;48.008;10.882;2023-05-17T09:11:31;10.80;99.90
32476;DHT22;18929;48.008;10.882;2023-05-17T09:13:59;10.70;99.90
32476;DHT22;18929;48.008;10.882;2023-05-17T09:16:26;10.30;99.90
32476;DHT22;18929;48.008;10.882;2023-05-17T09:18:53;10.30;99.90
32476;DHT22;18929;48.008;10.882;2023-05-17T09:21:20;10.30;99.90
32476;DHT22;18929;48.008;10.882;2023-05-17T09:23:48;10.40;99.90
32476;DHT22;18929;48.008;10.882;2023-05-17T09:26:16;10.80;99.90
32476;DHT22;18929;48.008;10.882;2023-05-17T09:28:43;10.80;99.90
32476;DHT22;18929;48.008;10.882;2023-05-17T09:31:10;10.80;99.90
32476;DHT22;18929;48.008;10.882;2023-05-17T09:33:41;10.60;99.90
32476;DHT22;18929;48.008;10.882;2023-05-17T09:36:14;10.50;99.90
32476;DHT22;18929;48.008;10.882;2023-05-17T09:38:41;10.30;99.90
32476;DHT22;18929;48.008;10.882;2023-05-17T09:41:07;10.70;99.90
32476;DHT22;18929;48.008;10.882;2023-05-17T09:43:36;11.20;99.90
32476;DHT22;18929;48.008;10.882;2023-05-17T09:46:02;11.30;99.90
32476;DHT22;18929;48.008;10.882;2023-05-17T09:48:29;11.40;99.90
32476;DHT22;18929;48.008;10.882;2023-05-17T09:50:56;11.20;99.90
32476;DHT22;18929;48.008;10.882;2023-05-17T09:53:24;11.00;99.90
32476;DHT22;18929;48.008;10.882;2023-05-17T09:55:51;10.60;99.90
32476;DHT22;18929;48.008;10.882;2023-05-17T09:58:18;10.50;99.90
32476;DHT22;18929;48.008;10.882;2023-05-17T10:00:53;10.60;99.90
32476;DHT22;18929;48.008;10.882;2023-05-17T10:03:20;11.00;99.90
32476;DHT22;18929;48.008;10.882;2023-05-17T10:05:49;10.90;99.90
32476;DHT22;18929;48.008;10.882;2023-05-17T10:08:19;11.30;99.90
32476;DHT22;18929;48.008;10.882;2023-05-17T10:10:47;11.00;99.90
32476;DHT22;18929;48.008;10.882;2023-05-17T10:13:15;11.00;99.90
32476;DHT22;18929;48.008;10.882;2023-05-17T10:15:43;11.60;99.90
32476;DHT22;18929;48.008;10.882;2023-05-17T10:18:12;10.90;99.90
32476;DHT22;18929;48.008;10.882;2023-05-17T10:20:39;11.20;99.90
32476;DHT22;18929;48.008;10.882;2023-05-17T10:23:06;11.70;99.90
32476;DHT22;18929;48.008;10.882;2023-05-17T10:25:33;11.50;99.90
32476;DHT22;18929;48.008;10.882;2023-05-17T10:28:01;11.00;99.90
32476;DHT22;18929;48.008;10.882;2023-05-17T10:30:30;11.20;99.90
32476;DHT22;18929;48.008;10.882;2023-05-17T10:32:58;10.80;99.90
32476;DHT22;18929;48.008;10.882;2023-05-17T10:35:26;11.40;99.90
32476;DHT22;18929;48.008;10.882;2023-05-17T10:37:53;11.70;99.90
32476;DHT22;18929;48.008;10.882;2023-05-17T10:40:20;11.80;99.90
32476;DHT22;18929;48.008;10.882;2023-05-17T10:42:49;11.50;99.90
32476;DHT22;18929;48.008;10.882;2023-05-17T10:45:18;11.60;99.90
32476;DHT22;18929;48.008;10.882;2023-05-17T10:47:45;11.80;99.90
32476;DHT22;18929;48.008;10.882;2023-05-17T10:50:13;11.70;99.90
32476;DHT22;18929;48.008;10.882;2023-05-17T10:52:48;11.60;99.90
32476;DHT22;18929;48.008;10.882;2023-05-17T10:55:18;11.60;99.90
32476;DHT22;18929;48.008;10.882;2023-05-17T10:57:51;11.70;99.90
32476;DHT22;18929;48.008;10.882;2023-05-17T11:00:23;11.70;99.90
32476;DHT22;18929;48.008;10.882;2023-05-17T11:02:56;11.60;99.90
32476;DHT22;18929;48.008;10.882;2023-05-17T11:05:36;11.00;99.90
32476;DHT22;18929;48.008;10.882;2023-05-17T11:13:33;12.30;99.90
32476;DHT22;18929;48.008;10.882;2023-05-17T11:16:02;12.00;99.90
32476;DHT22;18929;48.008;10.882;2023-05-17T11:21:12;12.00;99.90
32476;DHT22;18929;48.008;10.882;2023-05-17T11:23:39;12.20;99.90
32476;DHT22;18929;48.008;10.882;2023-05-17T11:26:11;11.80;99.90
32476;DHT22;18929;48.008;10.882;2023-05-17T11:28:39;11.50;99.90
32476;DHT22;18929;48.008;10.882;2023-05-17T11:31:06;11.60;99.90
32476;DHT22;18929;48.008;10.882;2023-05-17T11:33:36;11.40;99.90
32476;DHT22;18929;48.008;10.882;2023-05-17T11:36:04;11.70;99.90
32476;DHT22;18929;48.008;10.882;2023-05-17T11:38:31;11.90;99.90
32476;DHT22;18929;48.008;10.882;2023-05-17T11:41:00;12.10;99.90
32476;DHT22;18929;48.008;10.882;2023-05-17T11:43:45;12.10;99.90
32476;DHT22;18929;48.008;10.882;2023-05-17T11:46:17;12.30;99.90
32476;DHT22;18929;48.008;10.882;2023-05-17T11:48:44;11.60;99.90
32476;DHT22;18929;48.008;10.882;2023-05-17T11:51:12;11.30;99.90
32476;DHT22;18929;48.008;10.882;2023-05-17T11:53:39;11.70;99.90
32476;DHT22;18929;48.008;10.882;2023-05-17T11:56:06;11.90;99.90
32476;DHT22;18929;48.008;10.882;2023-05-17T11:58:33;12.00;99.90
32476;DHT22;18929;48.008;10.882;2023-05-17T12:01:01;12.60;99.90
32476;DHT22;18929;48.008;10.882;2023-05-17T12:03:29;12.70;99.90
32476;DHT22;18929;48.008;10.882;2023-05-17T12:06:00;12.60;99.90
32476;DHT22;18929;48.008;10.882;2023-05-17T12:08:28;12.20;99.90
32476;DHT22;18929;48.008;10.882;2023-05-17T12:10:56;12.00;99.90
32476;DHT22;18929;48.008;10.882;2023-05-17T12:13:23;12.20;99.90
32476;DHT22;18929;48.008;10.882;2023-05-17T12:15:59;12.60;99.90
32476;DHT22;18929;48.008;10.882;2023-05-17T12:18:35;12.50;99.90
32476;DHT22;18929;48.008;10.882;2023-05-17T12:21:02;12.10;99.90
32476;DHT22;18929;48.008;10.882;2023-05-17T12:23:30;12.10;99.90
32476;DHT22;18929;48.008;10.882;2023-05-17T12:26:00;12.60;99.90
32476;DHT22;18929;48.008;10.882;2023-05-17T12:28:27;12.50;99.90
32476;DHT22;18929;48.008;10.882;2023-05-17T12:30:54;12.40;99.90
32476;DHT22;18929;48.008;10.882;2023-05-17T12:33:23;12.30;99.90
32476;DHT22;18929;48.008;10.882;2023-05-17T12:35:51;12.20;99.90
32476;DHT22;18929;48.008;10.882;2023-05-17T12:38:18;12.90;99.90
32476;DHT22;18929;48.008;10.882;2023-05-17T12:40:45;12.80;99.90
32476;DHT22;18929;48.008;10.882;2023-05-17T12:43:12;12.70;99.90
32476;DHT22;18929;48.008;10.882;2023-05-17T12:45:40;12.80;99.90
32476;DHT22;18929;48.008;10.882;2023-05-17T12:48:06;13.30;99.90
32476;DHT22;18929;48.008;10.882;2023-05-17T12:50:33;13.00;99.90
32476;DHT22;18929;48.008;10.882;2023-05-17T12:53:07;13.40;99.90
32476;DHT22;18929;48.008;10.882;2023-05-17T12:55:35;12.80;99.90
32476;DHT22;18929;48.008;10.882;2023-05-17T12:58:02;12.90;99.90
32476;DHT22;18929;48.008;10.882;2023-05-17T13:00:29;12.40;99.90
32476;DHT22;18929;48.008;10.882;2023-05-17T13:02:56;12.20;99.90
32476;DHT22;18929;48.008;10.882;2023-05-17T13:05:22;12.20;99.90
32476;DHT22;18929;48.008;10.882;2023-05-17T13:07:49;12.50;99.90
32476;DHT22;18929;48.008;10.882;2023-05-17T13:10:21;13.00;99.90
32476;DHT22;18929;48.008;10.882;2023-05-17T13:12:53;12.80;99.90
32476;DHT22;18929;48.008;10.882;2023-05-17T13:15:25;13.00;99.90
32476;DHT22;18929;48.008;10.882;2023-05-17T13:17:51;12.90;99.90
32476;DHT22;18929;48.008;10.882;2023-05-17T13:20:18;12.90;99.90
32476;DHT22;18929;48.008;10.882;2023-05-17T13:22:46;12.90;99.90
32476;DHT22;18929;48.008;10.882;2023-05-17T13:25:13;13.10;99.90
32476;DHT22;18929;48.008;10.882;2023-05-17T13:27:42;13.00;99.90
32476;DHT22;18929;48.008;10.882;2023-05-17T13:30:11;12.90;99.90
32476;DHT22;18929;48.008;10.882;2023-05-17T13:32:38;12.90;99.90
32476;DHT22;18929;48.008;10.882;2023-05-17T13:35:05;13.10;99.90
32476;DHT22;18929;48.008;10.882;2023-05-17T13:37:33;13.00;99.90
32476;DHT22;18929;48.008;10.882;2023-05-17T13:40:00;13.30;99.90
32476;DHT22;18929;48.008;10.882;2023-05-17T13:42:26;12.50;99.90
32476;DHT22;18929;48.008;10.882;2023-05-17T13:44:55;13.00;99.90
32476;DHT22;18929;48.008;10.882;2023-05-17T13:47:22;12.80;99.90
32476;DHT22;18929;48.008;10.882;2023-05-17T13:49:49;12.40;99.90
32476;DHT22;18929;48.008;10.882;2023-05-17T13:52:16;13.20;99.90
32476;DHT22;18929;48.008;10.882;2023-05-17T13:54:43;12.90;99.90
32476;DHT22;18929;48.008;10.882;2023-05-17T13:57:10;13.10;99.90
32476;DHT22;18929;48.008;10.882;2023-05-17T13:59:37;13.50;99.90
32476;DHT22;18929;48.008;10.882;2023-05-17T14:02:06;12.40;99.90
32476;DHT22;18929;48.008;10.882;2023-05-17T14:04:33;13.00;99.90
32476;DHT22;18929;48.008;10.882;2023-05-17T14:07:00;13.20;99.90
32476;DHT22;18929;48.008;10.882;2023-05-17T14:09:27;13.50;99.90
32476;DHT22;18929;48.008;10.882;2023-05-17T14:11:57;13.40;99.90
32476;DHT22;18929;48.008;10.882;2023-05-17T14:14:24;13.50;99.90
32476;DHT22;18929;48.008;10.882;2023-05-17T14:16:52;13.70;99.90
32476;DHT22;18929;48.008;10.882;2023-05-17T14:19:20;13.90;99.90
32476;DHT22;18929;48.008;10.882;2023-05-17T14:21:47;13.50;99.90
32476;DHT22;18929;48.008;10.882;2023-05-17T14:24:14;13.30;99.90
32476;DHT22;18929;48.008;10.882;2023-05-17T14:26:41;13.40;99.90
32476;DHT22;18929;48.008;10.882;2023-05-17T14:29:08;13.20;99.90
32476;DHT22;18929;48.008;10.882;2023-05-17T14:31:35;13.50;99.90
32476;DHT22;18929;48.008;10.882;2023-05-17T14:34:02;13.60;99.90
32476;DHT22;18929;48.008;10.882;2023-05-17T14:36:30;12.70;99.90
32476;DHT22;18929;48.008;10.882;2023-05-17T14:38:59;12.60;99.90
32476;DHT22;18929;48.008;10.882;2023-05-17T14:41:26;13.10;99.90
32476;DHT22;18929;48.008;10.882;2023-05-17T14:43:53;12.60;99.90
32476;DHT22;18929;48.008;10.882;2023-05-17T14:46:20;12.90;99.90
32476;DHT22;18929;48.008;10.882;2023-05-17T14:48:47;13.10;99.90
32476;DHT22;18929;48.008;10.882;2023-05-17T14:51:16;13.40;99.90
32476;DHT22;18929;48.008;10.882;2023-05-17T14:53:44;13.60;99.90
32476;DHT22;18929;48.008;10.882;2023-05-17T14:56:11;13.40;99.90
32476;DHT22;18929;48.008;10.882;2023-05-17T14:58:39;13.60;99.90
32476;DHT22;18929;48.008;10.882;2023-05-17T15:01:06;14.20;99.90
32476;DHT22;18929;48.008;10.882;2023-05-17T15:03:33;14.40;99.90
32476;DHT22;18929;48.008;10.882;2023-05-17T15:06:00;13.80;99.90
32476;DHT22;18929;48.008;10.882;2023-05-17T15:08:27;13.40;99.90
32476;DHT22;18929;48.008;10.882;2023-05-17T15:10:55;13.80;99.90
32476;DHT22;18929;48.008;10.882;2023-05-17T15:13:22;13.60;99.90
32476;DHT22;18929;48.008;10.882;2023-05-17T15:15:48;14.00;99.90
32476;DHT22;18929;48.008;10.882;2023-05-17T15:18:16;13.80;99.90
32476;DHT22;18929;48.008;10.882;2023-05-17T15:20:43;13.40;99.90
32476;DHT22;18929;48.008;10.882;2023-05-17T15:23:10;13.30;99.90
32476;DHT22;18929;48.008;10.882;2023-05-17T15:25:37;13.50;99.90
32476;DHT22;18929;48.008;10.882;2023-05-17T15:28:05;13.00;99.90
32476;DHT22;18929;48.008;10.882;2023-05-17T15:30:34;12.80;99.90
32476;DHT22;18929;48.008;10.882;2023-05-17T15:33:01;13.00;99.90